Time;durP1;ratioP1;P1;durP2;ratioP2;P2;SDS_P1;SDS_P2;PMS_P1;PMS_P2;Temp;Humidity;BMP_temperature;BMP_pressure;BME280_temperature;BME280_humidity;BME280_pressure;Samples;Min_cycle;Max_cycle;Signal;HPM_P1;HPM_P2
2022/12/24 00:01:00;;;;;;;;;;;;;;;12.43;62.18;100728.38;7404562;19;1366;-65
2022/12/24 00:03:28;;;;;;;;;;;;;;;12.46;62.35;100728.22;7404985;19;957;-66
2022/12/24 00:05:59;;;;;;;;;;;;;;;12.44;62.16;100735.41;7405102;19;976;-65
2022/12/24 00:08:27;;;;;;;;;;;;;;;12.34;62.40;100735.97;7404679;19;993;-66
2022/12/24 00:10:56;;;;;;;;;;;;;;;12.37;62.38;100747.31;7403039;19;1859;-66
2022/12/24 00:13:24;;;;;;;;;;;;;;;12.41;62.28;100732.94;7404733;19;981;-66
2022/12/24 00:15:53;;;;;;;;;;;;;;;12.48;62.23;100731.63;7404717;19;1012;-66
2022/12/24 00:18:21;;;;;;;;;;;;;;;12.56;61.75;100724.03;7405043;19;1001;-65
2022/12/24 00:20:50;;;;;;;;;;;;;;;12.59;62.07;100734.44;7404724;19;1015;-66
2022/12/24 00:23:21;;;;;;;;;;;;;;;12.61;61.78;100727.25;7404423;19;1017;-65
2022/12/24 00:25:50;;;;;;;;;;;;;;;12.59;61.98;100742.41;7404750;19;1013;-66
2022/12/24 00:28:23;;;;;;;;;;;;;;;12.51;61.95;100723.47;7404671;19;927;-65
2022/12/24 00:30:51;;;;;;;;;;;;;;;12.39;62.21;100721.56;7402622;19;1866;-66
2022/12/24 00:33:21;;;;;;;;;;;;;;;12.38;62.29;100725.19;7404052;19;976;-65
2022/12/24 00:35:52;;;;;;;;;;;;;;;12.42;62.44;100742.59;7404487;19;915;-66
2022/12/24 00:38:23;;;;;;;;;;;;;;;12.48;62.12;100727.16;7403949;19;2079;-66
2022/12/24 00:40:51;;;;;;;;;;;;;;;12.48;62.02;100715.72;7404304;19;1167;-66
2022/12/24 00:43:19;;;;;;;;;;;;;;;12.53;61.98;100730.41;7403589;19;1119;-66
2022/12/24 00:45:50;;;;;;;;;;;;;;;12.51;61.93;100715.50;7402285;19;939;-66
2022/12/24 00:48:19;;;;;;;;;;;;;;;12.58;61.79;100723.97;7403586;19;961;-65
2022/12/24 00:50:47;;;;;;;;;;;;;;;12.57;61.95;100731.03;7402367;19;1856;-66
2022/12/24 00:53:15;;;;;;;;;;;;;;;12.55;62.02;100732.94;7403405;19;981;-65
2022/12/24 00:55:46;;;;;;;;;;;;;;;12.46;62.07;100728.22;7403228;19;1098;-65
2022/12/24 00:58:15;;;;;;;;;;;;;;;12.42;62.29;100742.59;7403619;19;1059;-65
2022/12/24 01:00:43;;;;;;;;;;;;;;;12.40;62.10;100733.91;7400007;19;1053;-65
2022/12/24 01:03:11;;;;;;;;;;;;;;;12.42;62.06;100727.53;7400068;19;1414;-65
2022/12/24 01:05:37;;;;;;;;;;;;;;;12.47;61.99;100727.25;7402446;19;1001;-65
2022/12/24 01:08:05;;;;;;;;;;;;;;;12.52;61.94;100722.53;7401999;19;923;-65
2022/12/24 01:10:33;;;;;;;;;;;;;;;12.53;62.01;100721.56;7401455;19;1836;-66
2022/12/24 01:13:05;;;;;;;;;;;;;;;12.55;61.94;100722.31;7402661;19;1067;-66
2022/12/24 01:15:33;;;;;;;;;;;;;;;12.48;61.94;100724.50;7401962;19;1071;-65
2022/12/24 01:18:02;;;;;;;;;;;;;;;12.43;62.03;100721.28;7402671;19;948;-66
2022/12/24 01:20:31;;;;;;;;;;;;;;;12.38;62.07;100720.72;7401706;19;1012;-66
2022/12/24 01:23:00;;;;;;;;;;;;;;;12.38;62.21;100710.13;7402085;19;969;-65
2022/12/24 01:25:28;;;;;;;;;;;;;;;12.50;62.14;100709.34;7402582;19;956;-65
2022/12/24 01:27:57;;;;;;;;;;;;;;;12.54;61.89;100715.34;7401944;19;1005;-65
2022/12/24 01:30:27;;;;;;;;;;;;;;;12.56;61.85;100708.13;7400801;19;1850;-66
2022/12/24 01:32:56;;;;;;;;;;;;;;;12.59;61.83;100718.53;7402270;19;1005;-66
2022/12/24 01:35:24;;;;;;;;;;;;;;;12.58;61.67;100710.69;7400047;19;1467;-66
2022/12/24 01:37:52;;;;;;;;;;;;;;;12.55;62.06;100717.03;7401579;19;1008;-65
2022/12/24 01:45:47;;;;;;;;;;;;;;;12.40;62.02;100725.94;7402400;19;781;-66
2022/12/24 01:48:17;;;;;;;;;;;;;;;12.45;62.17;100721.19;7401244;19;992;-65
2022/12/24 01:50:46;;;;;;;;;;;;;;;12.52;62.18;100709.28;7400411;19;1874;-66
2022/12/24 01:53:15;;;;;;;;;;;;;;;12.53;62.10;100721.56;7400943;19;1063;-65
2022/12/24 01:55:45;;;;;;;;;;;;;;;12.57;61.81;100716.94;7401430;19;987;-66
2022/12/24 01:58:15;;;;;;;;;;;;;;;12.61;61.53;100703.38;7401154;19;998;-66
2022/12/24 02:00:46;;;;;;;;;;;;;;;12.57;61.58;100714.28;7399352;19;1565;-66
2022/12/24 02:03:14;;;;;;;;;;;;;;;12.52;61.94;100719.88;7400555;19;1040;-65
2022/12/24 02:05:47;;;;;;;;;;;;;;;12.45;62.15;100705.28;7401380;19;946;-65
2022/12/24 02:08:16;;;;;;;;;;;;;;;12.42;62.08;100710.78;7400864;19;945;-66
2022/12/24 02:10:44;;;;;;;;;;;;;;;12.43;62.15;100696.56;7399996;19;1867;-65
2022/12/24 02:13:13;;;;;;;;;;;;;;;12.50;62.05;100692.59;7400421;19;1005;-66
2022/12/24 02:15:50;;;;;;;;;;;;;;;12.53;61.89;100693.25;7400485;19;1160;-66
2022/12/24 02:18:22;;;;;;;;;;;;;;;12.53;61.73;100687.97;7401691;19;932;-66
2022/12/24 02:21:05;;;;;;;;;;;;;;;12.57;61.65;100688.59;7408244;19;1004;-66
2022/12/24 02:23:45;;;;;;;;;;;;;;;12.53;61.83;100682.66;7407479;19;1001;-66
2022/12/24 02:26:20;;;;;;;;;;;;;;;12.49;61.88;100686.44;7408172;19;944;-65
2022/12/24 02:28:57;;;;;;;;;;;;;;;12.45;62.16;100694.66;7407346;19;885;-65
2022/12/24 02:31:32;;;;;;;;;;;;;;;12.44;62.38;100682.38;7406275;19;2131;-65
2022/12/24 02:34:04;;;;;;;;;;;;;;;12.42;62.36;100681.63;7407029;19;1052;-65
2022/12/24 02:36:34;;;;;;;;;;;;;;;12.53;62.02;100697.69;7408300;19;931;-65
2022/12/24 02:39:04;;;;;;;;;;;;;;;12.54;61.93;100688.81;7407687;19;925;-66
2022/12/24 02:42:04;;;;;;;;;;;;;;;12.54;61.63;100680.84;7407238;19;1075;-65
2022/12/24 02:44:24;;;;;;;;;;;;;;;12.54;61.61;100684.34;7407266;19;1045;-65
2022/12/24 02:46:56;;;;;;;;;;;;;;;12.48;61.99;100689.19;7407734;19;922;-65
2022/12/24 02:49:25;;;;;;;;;;;;;;;12.38;62.19;100677.44;7407441;19;985;-65
2022/12/24 02:51:53;;;;;;;;;;;;;;;12.39;62.21;100679.97;7404034;19;1854;-65
2022/12/24 02:54:21;;;;;;;;;;;;;;;12.37;62.08;100671.28;7406734;19;989;-65
2022/12/24 02:56:59;;;;;;;;;;;;;;;12.43;62.13;100676.19;7407320;19;1023;-66
2022/12/24 02:59:42;;;;;;;;;;;;;;;12.44;61.91;100692.97;7407316;19;942;-66
2022/12/24 03:02:20;;;;;;;;;;;;;;;12.50;61.69;100682.00;7403554;19;1318;-65
2022/12/24 03:04:52;;;;;;;;;;;;;;;12.52;61.88;100675.63;7407454;19;976;-65
2022/12/24 03:07:24;;;;;;;;;;;;;;;12.52;61.74;100685.41;7407433;19;994;-65
2022/12/24 03:10:13;;;;;;;;;;;;;;;12.46;62.00;100681.31;7407318;19;990;-66
2022/12/24 03:12:44;;;;;;;;;;;;;;;12.39;62.17;100689.75;7407008;19;959;-66
2022/12/24 03:15:15;;;;;;;;;;;;;;;12.36;62.48;100658.13;7407200;19;969;-66
2022/12/24 03:17:48;;;;;;;;;;;;;;;12.42;62.32;100669.19;7406713;19;984;-65
2022/12/24 03:20:20;;;;;;;;;;;;;;;12.44;61.99;100674.41;7403823;19;1472;-66
2022/12/24 03:22:48;;;;;;;;;;;;;;;12.44;62.02;100682.38;7406572;19;909;-66
2022/12/24 03:25:17;;;;;;;;;;;;;;;12.51;61.80;100683.69;7406811;19;1014;-65
2022/12/24 03:27:46;;;;;;;;;;;;;;;12.53;61.82;100687.09;7406417;19;1015;-66
2022/12/24 03:30:17;;;;;;;;;;;;;;;12.54;61.69;100681.69;7405724;19;1845;-66
2022/12/24 03:32:48;;;;;;;;;;;;;;;12.48;62.11;100683.88;7406171;19;1028;-65
2022/12/24 03:35:16;;;;;;;;;;;;;;;12.40;61.95;100681.69;7406048;19;1027;-66
2022/12/24 03:37:45;;;;;;;;;;;;;;;12.36;61.97;100680.19;7406145;19;909;-65
2022/12/24 03:40:13;;;;;;;;;;;;;;;12.37;61.86;100681.03;7405929;19;1080;-65
2022/12/24 03:42:42;;;;;;;;;;;;;;;12.47;61.92;100672.44;7406231;19;997;-66
2022/12/24 03:45:11;;;;;;;;;;;;;;;12.47;61.80;100671.56;7406074;19;997;-66
2022/12/24 03:47:39;;;;;;;;;;;;;;;12.47;61.73;100676.84;7405665;19;1067;-66
2022/12/24 03:50:10;;;;;;;;;;;;;;;12.37;62.08;100671.28;7405477;19;1067;-66
2022/12/24 03:52:39;;;;;;;;;;;;;;;12.31;62.36;100666.34;7403129;19;1861;-65
2022/12/24 03:55:07;;;;;;;;;;;;;;;12.21;62.39;100660.75;7405719;19;919;-66
2022/12/24 03:57:35;;;;;;;;;;;;;;;12.22;62.39;100681.03;7406617;19;972;-66
2022/12/24 04:00:04;;;;;;;;;;;;;;;12.42;62.07;100663.91;7405025;19;993;-65
2022/12/24 04:02:32;;;;;;;;;;;;;;;12.52;61.84;100682.75;7403185;19;1361;-66
2022/12/24 04:05:00;;;;;;;;;;;;;;;12.43;61.79;100676.19;7405068;19;941;-66
2022/12/24 04:07:33;;;;;;;;;;;;;;;12.39;62.08;100679.97;7405336;19;1007;-65
2022/12/24 04:10:01;;;;;;;;;;;;;;;12.36;61.86;100676.69;7404907;19;1064;-66
2022/12/24 04:12:30;;;;;;;;;;;;;;;12.34;62.01;100684.72;7402933;19;1853;-65
2022/12/24 04:14:58;;;;;;;;;;;;;;;12.41;61.85;100687.84;7404815;19;1055;-65
2022/12/24 04:17:26;;;;;;;;;;;;;;;12.45;61.68;100689.38;7405103;19;963;-66
2022/12/24 04:19:55;;;;;;;;;;;;;;;12.52;61.78;100701.31;7404545;19;1047;-65
2022/12/24 04:22:23;;;;;;;;;;;;;;;12.53;61.73;100698.56;7404979;19;900;-65
2022/12/24 04:24:54;;;;;;;;;;;;;;;12.50;61.49;100692.59;7404419;19;1079;-65
2022/12/24 04:27:22;;;;;;;;;;;;;;;12.51;61.51;100683.69;7404844;19;978;-65
2022/12/24 04:29:51;;;;;;;;;;;;;;;12.54;61.67;100680.84;7404562;19;982;-65
2022/12/24 04:32:19;;;;;;;;;;;;;;;12.52;61.47;100682.75;7402914;19;1836;-65
2022/12/24 04:34:47;;;;;;;;;;;;;;;12.47;61.70;100679.50;7404104;19;997;-66
2022/12/24 04:37:16;;;;;;;;;;;;;;;12.36;61.94;100684.66;7404521;19;930;-66
2022/12/24 04:39:44;;;;;;;;;;;;;;;12.30;62.30;100678.75;7403928;19;1074;-66
2022/12/24 04:42:15;;;;;;;;;;;;;;;12.32;62.12;100690.13;7402089;19;1162;-65
2022/12/24 04:44:43;;;;;;;;;;;;;;;12.39;62.05;100689.75;7403602;19;966;-66
2022/12/24 04:47:12;;;;;;;;;;;;;;;12.47;61.59;100698.97;7403600;19;1001;-65
2022/12/24 04:49:40;;;;;;;;;;;;;;;12.53;61.73;100684.44;7403993;19;980;-65
2022/12/24 04:52:08;;;;;;;;;;;;;;;12.54;61.65;100684.34;7402235;19;1860;-65
2022/12/24 04:54:37;;;;;;;;;;;;;;;12.53;61.60;100700.34;7403357;19;1070;-66
2022/12/24 04:57:05;;;;;;;;;;;;;;;12.55;61.47;100690.50;7403267;19;1067;-65
2022/12/24 04:59:36;;;;;;;;;;;;;;;12.52;61.53;100706.63;7403251;19;980;-65
2022/12/24 05:02:05;;;;;;;;;;;;;;;12.45;61.83;100702.63;7402074;19;1395;-66
2022/12/24 05:04:33;;;;;;;;;;;;;;;12.34;62.02;100704.13;7403660;19;980;-66
2022/12/24 05:07:01;;;;;;;;;;;;;;;12.33;62.05;100709.53;7403066;19;1064;-65
2022/12/24 05:09:30;;;;;;;;;;;;;;;12.38;62.06;100698.66;7401397;19;1376;-65
2022/12/24 05:11:58;;;;;;;;;;;;;;;12.39;61.83;100703.84;7401922;19;1847;-66
2022/12/24 05:14:26;;;;;;;;;;;;;;;12.43;61.76;100707.16;7403261;19;1122;-66
2022/12/24 05:16:57;;;;;;;;;;;;;;;12.43;62.07;100705.38;7402593;19;1001;-65
2022/12/24 05:19:25;;;;;;;;;;;;;;;12.50;61.67;100697.91;7402540;19;975;-65
2022/12/24 05:27:15;;;;;;;;;;;;;;;12.45;61.60;100695.50;7402480;19;707;-66
2022/12/24 05:29:43;;;;;;;;;;;;;;;12.38;61.93;100706.63;7402231;19;997;-66
2022/12/24 05:32:14;;;;;;;;;;;;;;;12.31;62.02;100707.00;7401043;19;1842;-65
2022/12/24 05:34:42;;;;;;;;;;;;;;;12.32;62.11;100698.09;7402585;19;1063;-66
2022/12/24 05:37:11;;;;;;;;;;;;;;;12.39;61.82;100711.81;7402153;19;997;-65
2022/12/24 05:39:39;;;;;;;;;;;;;;;12.41;61.82;100703.75;7401924;19;912;-65
2022/12/24 05:42:07;;;;;;;;;;;;;;;12.43;61.68;100697.41;7401919;19;1048;-65
2022/12/24 05:44:36;;;;;;;;;;;;;;;12.51;61.75;100718.16;7402259;19;965;-65
2022/12/24 05:47:05;;;;;;;;;;;;;;;12.45;61.57;100695.50;7402204;19;956;-65
2022/12/24 05:49:36;;;;;;;;;;;;;;;12.48;61.55;100702.44;7402061;19;1122;-66
2022/12/24 05:52:04;;;;;;;;;;;;;;;12.48;61.34;100694.50;7400655;19;1857;-65
2022/12/24 05:54:32;;;;;;;;;;;;;;;12.49;61.61;100699.72;7401507;19;998;-65
2022/12/24 05:57:01;;;;;;;;;;;;;;;12.42;61.75;100694.88;7401459;19;1001;-66
2022/12/24 05:59:30;;;;;;;;;;;;;;;12.41;61.93;100701.09;7401301;19;1013;-66
2022/12/24 06:01:58;;;;;;;;;;;;;;;12.38;61.74;100688.91;7400363;19;1289;-66
2022/12/24 06:04:26;;;;;;;;;;;;;;;12.40;61.78;100683.50;7401354;19;1000;-66
2022/12/24 06:06:57;;;;;;;;;;;;;;;12.47;61.74;100687.47;7401282;19;1060;-65
2022/12/24 06:09:25;;;;;;;;;;;;;;;12.51;61.53;100683.69;7401625;19;990;-66
2022/12/24 06:11:54;;;;;;;;;;;;;;;12.54;61.54;100673.72;7400484;19;1861;-66
2022/12/24 06:14:22;;;;;;;;;;;;;;;12.53;61.27;100676.47;7401427;19;994;-65
2022/12/24 06:16:50;;;;;;;;;;;;;;;12.56;61.44;100680.75;7400980;19;989;-65
2022/12/24 06:19:19;;;;;;;;;;;;;;;12.56;61.25;100678.94;7399397;19;1387;-67
2022/12/24 06:21:47;;;;;;;;;;;;;;;12.46;61.43;100676.00;7401254;19;1002;-65
2022/12/24 06:24:18;;;;;;;;;;;;;;;12.44;61.93;100669.09;7401282;19;1122;-65
2022/12/24 06:26:47;;;;;;;;;;;;;;;12.40;61.78;100681.69;7401270;19;935;-66
2022/12/24 06:29:15;;;;;;;;;;;;;;;12.44;61.65;100680.56;7400575;19;1063;-66
2022/12/24 06:31:43;;;;;;;;;;;;;;;12.47;61.62;100675.09;7399963;19;1842;-66
2022/12/24 06:34:11;;;;;;;;;;;;;;;12.57;61.56;100683.28;7400518;19;1004;-66
2022/12/24 06:36:40;;;;;;;;;;;;;;;12.61;61.18;100683.97;7400468;19;1029;-65
2022/12/24 06:39:08;;;;;;;;;;;;;;;12.60;61.03;100675.16;7400432;19;989;-66
2022/12/24 06:41:39;;;;;;;;;;;;;;;12.58;61.18;100697.44;7400322;19;1067;-65
2022/12/24 06:44:07;;;;;;;;;;;;;;;12.53;61.49;100687.09;7400552;19;1001;-66
2022/12/24 06:46:35;;;;;;;;;;;;;;;12.47;61.62;100692.78;7400639;19;1034;-66
2022/12/24 06:49:04;;;;;;;;;;;;;;;12.46;61.73;100696.38;7400070;19;1008;-66
2022/12/24 06:51:32;;;;;;;;;;;;;;;12.49;61.29;100691.75;7400185;19;1853;-65
2022/12/24 06:54:00;;;;;;;;;;;;;;;12.53;61.22;100693.25;7399911;19;1056;-65
2022/12/24 06:56:29;;;;;;;;;;;;;;;12.66;61.18;100698.66;7400328;19;1008;-66
2022/12/24 06:59:00;;;;;;;;;;;;;;;12.66;61.10;100700.47;7399858;19;1001;-66
2022/12/24 07:01:28;;;;;;;;;;;;;;;12.61;61.25;100706.03;7398952;19;1544;-66
2022/12/24 07:03:56;;;;;;;;;;;;;;;12.53;61.54;100703.88;7399699;19;1021;-65
2022/12/24 07:06:26;;;;;;;;;;;;;;;12.52;61.39;100696.00;7406846;19;1079;-65
2022/12/24 07:08:55;;;;;;;;;;;;;;;12.53;61.57;100703.88;7407329;19;984;-66
2022/12/24 07:11:24;;;;;;;;;;;;;;;12.62;61.34;100685.69;7406810;19;1849;-65
2022/12/24 07:13:53;;;;;;;;;;;;;;;12.63;61.34;100697.97;7407238;19;1002;-65
2022/12/24 07:16:24;;;;;;;;;;;;;;;12.61;61.42;100692.75;7406734;19;1001;-65
2022/12/24 07:18:52;;;;;;;;;;;;;;;12.59;61.37;100692.00;7406950;19;972;-66
2022/12/24 07:21:20;;;;;;;;;;;;;;;12.52;61.51;100703.97;7406526;19;1063;-65
2022/12/24 07:23:49;;;;;;;;;;;;;;;12.52;61.49;100691.53;7404308;19;1414;-66
2022/12/24 07:26:17;;;;;;;;;;;;;;;12.59;61.51;100688.50;7406434;19;1797;-65
2022/12/24 07:28:45;;;;;;;;;;;;;;;12.63;61.36;100688.22;7406326;19;1017;-66
2022/12/24 07:31:13;;;;;;;;;;;;;;;12.60;61.51;100683.13;7406189;19;1072;-66
2022/12/24 07:33:44;;;;;;;;;;;;;;;12.55;61.60;100695.81;7403732;19;1878;-65
2022/12/24 07:36:17;;;;;;;;;;;;;;;12.52;61.54;100701.31;7406586;19;922;-65
2022/12/24 07:38:45;;;;;;;;;;;;;;;12.56;61.44;100691.38;7406471;19;1103;-67
2022/12/24 07:41:13;;;;;;;;;;;;;;;12.61;61.58;100707.84;7405837;19;1056;-66
2022/12/24 07:43:42;;;;;;;;;;;;;;;12.60;61.47;100708.81;7405660;19;1067;-65
2022/12/24 07:46:10;;;;;;;;;;;;;;;12.56;61.75;100702.81;7405800;19;2069;-66
2022/12/24 07:48:40;;;;;;;;;;;;;;;12.62;61.36;100707.75;7405760;19;1048;-65
2022/12/24 07:51:10;;;;;;;;;;;;;;;12.65;61.16;100707.56;7406037;19;976;-65
2022/12/24 07:53:46;;;;;;;;;;;;;;;12.68;61.29;100698.56;7403720;19;1853;-66
2022/12/24 07:56:14;;;;;;;;;;;;;;;12.66;61.38;100698.66;7405836;19;1064;-66
2022/12/24 07:58:42;;;;;;;;;;;;;;;12.63;61.28;100697.97;7405298;19;1036;-65
2022/12/24 08:01:11;;;;;;;;;;;;;;;12.66;61.33;100713.72;7404532;19;1444;-66
2022/12/24 08:03:39;;;;;;;;;;;;;;;12.71;61.04;100717.78;7405155;19;1332;-65
2022/12/24 08:06:08;;;;;;;;;;;;;;;12.81;61.19;100727.81;7405033;19;1071;-66
2022/12/24 08:08:39;;;;;;;;;;;;;;;12.70;61.28;100718.72;7404933;19;985;-65
2022/12/24 08:11:08;;;;;;;;;;;;;;;12.71;61.34;100720.44;7405427;19;927;-65
2022/12/24 08:13:37;;;;;;;;;;;;;;;12.75;61.00;100718.44;7403101;19;1854;-66
2022/12/24 08:16:05;;;;;;;;;;;;;;;12.80;60.94;100726.97;7402354;19;1035;-67
2022/12/24 08:18:34;;;;;;;;;;;;;;;12.81;61.08;100709.25;7405045;19;980;-66
2022/12/24 08:21:02;;;;;;;;;;;;;;;12.80;61.31;100711.06;7404566;19;984;-66
2022/12/24 08:23:30;;;;;;;;;;;;;;;12.79;61.16;100733.22;7404550;19;939;-66
2022/12/24 08:26:01;;;;;;;;;;;;;;;12.87;60.79;100722.13;7404532;19;877;-66
2022/12/24 08:28:29;;;;;;;;;;;;;;;12.92;60.90;100725.34;7404399;19;985;-65
2022/12/24 08:30:58;;;;;;;;;;;;;;;12.89;60.69;100731.72;7404727;19;1002;-65
2022/12/24 08:33:26;;;;;;;;;;;;;;;12.83;60.80;100726.78;7402605;19;1855;-66
2022/12/24 08:35:55;;;;;;;;;;;;;;;12.88;60.86;100723.84;7402484;19;846;-66
2022/12/24 08:38:24;;;;;;;;;;;;;;;13.03;60.72;100749.41;7404066;19;953;-66
2022/12/24 08:40:54;;;;;;;;;;;;;;;13.01;60.68;100738.06;7404362;19;998;-65
2022/12/24 08:43:25;;;;;;;;;;;;;;;12.96;60.80;100724.22;7403781;19;1084;-65
2022/12/24 08:45:54;;;;;;;;;;;;;;;12.92;60.65;100726.19;7403790;19;1051;-65
2022/12/24 08:48:22;;;;;;;;;;;;;;;13.00;60.94;100743.44;7404092;19;1010;-66
2022/12/24 08:50:51;;;;;;;;;;;;;;;13.02;60.82;100737.09;7403635;19;1067;-65
2022/12/24 08:53:19;;;;;;;;;;;;;;;13.03;60.81;100722.88;7402284;19;1861;-65
2022/12/24 08:55:47;;;;;;;;;;;;;;;13.01;60.68;100726.56;7401883;19;1488;-66
2022/12/24 08:58:16;;;;;;;;;;;;;;;12.98;60.56;100745.34;7403361;19;1052;-66
2022/12/24 09:00:46;;;;;;;;;;;;;;;13.00;60.97;100717.75;7402732;19;1067;-65
2022/12/24 09:03:16;;;;;;;;;;;;;;;13.07;60.92;100719.06;7403669;19;935;-66
2022/12/24 09:05:44;;;;;;;;;;;;;;;13.02;60.73;100709.69;7403048;19;985;-66
2022/12/24 09:08:13;;;;;;;;;;;;;;;12.98;60.69;100717.00;7403014;19;993;-65
2022/12/24 09:10:41;;;;;;;;;;;;;;;12.91;61.15;100728.94;7403042;19;1036;-66
2022/12/24 09:13:09;;;;;;;;;;;;;;;12.92;61.09;100704.97;7401937;19;1853;-67
2022/12/24 09:15:38;;;;;;;;;;;;;;;13.03;60.82;100712.25;7402880;19;1056;-65
2022/12/24 09:18:09;;;;;;;;;;;;;;;13.06;60.78;100716.50;7402645;19;1005;-66
2022/12/24 09:20:37;;;;;;;;;;;;;;;12.97;60.95;100720.63;7402649;19;949;-66
2022/12/24 09:23:06;;;;;;;;;;;;;;;12.92;61.12;100715.56;7402607;19;1063;-65
2022/12/24 09:25:34;;;;;;;;;;;;;;;12.91;60.99;100713.00;7402586;19;965;-65
2022/12/24 09:28:02;;;;;;;;;;;;;;;12.98;61.09;100693.09;7401580;19;1075;-65
2022/12/24 09:30:31;;;;;;;;;;;;;;;13.05;60.70;100705.03;7402324;19;1056;-65
2022/12/24 09:32:59;;;;;;;;;;;;;;;12.99;60.91;100715.19;7401445;19;1862;-65
2022/12/24 09:35:30;;;;;;;;;;;;;;;12.89;61.32;100712.25;7402675;19;978;-65
2022/12/24 09:38:01;;;;;;;;;;;;;;;12.81;61.70;100706.59;7402588;19;968;-66
2022/12/24 09:40:32;;;;;;;;;;;;;;;12.88;61.44;100702.59;7402504;19;960;-66
2022/12/24 09:43:01;;;;;;;;;;;;;;;12.93;61.26;100695.19;7402269;19;1012;-65
2022/12/24 09:45:32;;;;;;;;;;;;;;;12.93;61.26;100705.81;7402256;19;994;-65
2022/12/24 09:48:02;;;;;;;;;;;;;;;12.86;61.51;100693.88;7401842;19;1071;-66
2022/12/24 09:50:39;;;;;;;;;;;;;;;12.79;61.48;100680.13;7401636;19;1043;-65
2022/12/24 09:53:15;;;;;;;;;;;;;;;12.84;61.39;100706.41;7401472;19;1851;-65
2022/12/24 09:55:45;;;;;;;;;;;;;;;12.87;61.55;100700.88;7402086;19;944;-65
2022/12/24 09:58:18;;;;;;;;;;;;;;;12.92;61.36;100709.44;7401442;19;996;-65
2022/12/24 10:00:46;;;;;;;;;;;;;;;12.86;61.48;100700.03;7401236;19;1058;-66
2022/12/24 10:03:16;;;;;;;;;;;;;;;12.77;61.76;100699.78;7401872;19;1006;-66
2022/12/24 10:05:53;;;;;;;;;;;;;;;12.77;61.73;100694.47;7401677;19;956;-66
2022/12/24 10:08:27;;;;;;;;;;;;;;;12.88;61.60;100699.97;7401239;19;1005;-65
2022/12/24 10:10:57;;;;;;;;;;;;;;;12.94;61.25;100696.91;7401219;19;1167;-66
2022/12/24 10:13:33;;;;;;;;;;;;;;;12.84;61.61;100707.25;7400264;19;1844;-66
2022/12/24 10:16:04;;;;;;;;;;;;;;;12.78;61.71;100710.28;7401124;19;1108;-65
2022/12/24 10:18:38;;;;;;;;;;;;;;;12.76;61.96;100708.69;7401046;19;945;-66
2022/12/24 10:21:13;;;;;;;;;;;;;;;12.85;61.55;100703.66;7399421;19;1469;-65
2022/12/24 10:23:47;;;;;;;;;;;;;;;12.87;61.60;100696.47;7401257;19;934;-65
2022/12/24 10:26:17;;;;;;;;;;;;;;;12.81;61.72;100698.63;7401310;19;995;-65
2022/12/24 10:28:48;;;;;;;;;;;;;;;12.78;61.87;100718.25;7400753;19;961;-66
2022/12/24 10:31:16;;;;;;;;;;;;;;;12.71;61.83;100717.78;7401438;19;935;-65
2022/12/24 10:33:45;;;;;;;;;;;;;;;12.80;61.94;100710.19;7399384;19;1845;-65
2022/12/24 10:36:19;;;;;;;;;;;;;;;12.89;61.31;100704.28;7400988;19;991;-65
2022/12/24 10:38:48;;;;;;;;;;;;;;;12.83;61.55;100715.31;7400969;19;995;-65
2022/12/24 10:41:16;;;;;;;;;;;;;;;12.73;62.01;100721.22;7407715;19;1191;-66
2022/12/24 10:43:46;;;;;;;;;;;;;;;12.65;62.02;100712.00;7407841;19;1063;-65
2022/12/24 10:46:18;;;;;;;;;;;;;;;12.73;62.21;100699.97;7407689;19;996;-65
2022/12/24 10:48:50;;;;;;;;;;;;;;;12.86;62.04;100725.75;7408184;19;1018;-66
2022/12/24 10:51:24;;;;;;;;;;;;;;;12.79;61.65;100708.47;7408142;19;998;-65
2022/12/24 10:53:54;;;;;;;;;;;;;;;12.76;61.88;100698.09;7405839;19;1838;-65
2022/12/24 10:56:22;;;;;;;;;;;;;;;12.70;62.05;100708.13;7405003;19;1559;-66
2022/12/24 10:58:53;;;;;;;;;;;;;;;12.70;61.92;100713.44;7407538;19;1007;-66
2022/12/24 11:01:21;;;;;;;;;;;;;;;12.75;62.22;100705.16;7404034;19;1477;-65
2022/12/24 11:04:02;;;;;;;;;;;;;;;12.77;62.17;100721.84;7407585;19;998;-65
2022/12/24 11:06:33;;;;;;;;;;;;;;;12.72;62.18;100714.19;7407428;19;1169;-66
2022/12/24 11:09:14;;;;;;;;;;;;;;;12.70;62.13;100718.72;7406889;19;947;-66
2022/12/24 11:11:42;;;;;;;;;;;;;;;12.67;62.33;100712.75;7404716;19;1389;-66
2022/12/24 11:14:16;;;;;;;;;;;;;;;12.74;61.88;100706.97;7405105;19;1865;-66
2022/12/24 11:16:50;;;;;;;;;;;;;;;12.74;62.13;100706.13;7407269;19;986;-66
2022/12/24 11:19:20;;;;;;;;;;;;;;;12.72;62.11;100706.22;7407046;19;985;-65
2022/12/24 11:21:59;;;;;;;;;;;;;;;12.66;62.23;100719.03;7406606;19;941;-65
2022/12/24 11:24:29;;;;;;;;;;;;;;;12.67;62.48;100710.97;7406937;19;1094;-65
2022/12/24 11:27:17;;;;;;;;;;;;;;;12.70;62.01;100710.78;7406452;19;1068;-65
2022/12/24 11:29:46;;;;;;;;;;;;;;;12.88;61.58;100700.78;7406024;19;1079;-65
2022/12/24 11:32:18;;;;;;;;;;;;;;;12.81;62.02;100712.78;7406649;19;918;-65
2022/12/24 11:34:46;;;;;;;;;;;;;;;12.71;62.38;100719.56;7404100;19;1848;-66
2022/12/24 11:37:21;;;;;;;;;;;;;;;12.69;62.09;100714.38;7406141;19;1132;-66
2022/12/24 11:39:51;;;;;;;;;;;;;;;12.79;62.07;100713.78;7406120;19;977;-65
2022/12/24 11:42:28;;;;;;;;;;;;;;;12.89;61.75;100704.28;7406335;19;936;-66
2022/12/24 11:44:58;;;;;;;;;;;;;;;12.83;62.04;100699.38;7405821;19;952;-65
2022/12/24 11:47:36;;;;;;;;;;;;;;;12.76;61.94;100717.50;7406333;19;927;-66
2022/12/24 11:50:22;;;;;;;;;;;;;;;12.66;62.47;100711.91;7405168;19;1008;-66
2022/12/24 11:52:57;;;;;;;;;;;;;;;12.73;62.11;100715.91;7405542;19;1291;-65
2022/12/24 11:55:30;;;;;;;;;;;;;;;12.75;62.15;100707.81;7405879;19;976;-65
2022/12/24 11:58:01;;;;;;;;;;;;;;;12.77;61.97;100705.06;7405369;19;1020;-66
2022/12/24 12:00:30;;;;;;;;;;;;;;;12.71;62.28;100707.19;7405030;19;1121;-65
2022/12/24 12:03:02;;;;;;;;;;;;;;;12.64;62.33;100705.84;7403512;19;1456;-66
2022/12/24 12:05:33;;;;;;;;;;;;;;;12.73;62.20;100715.91;7405439;19;959;-65
2022/12/24 12:08:09;;;;;;;;;;;;;;;12.79;62.02;100709.31;7402814;19;1470;-65
2022/12/24 12:10:39;;;;;;;;;;;;;;;12.80;62.05;100699.59;7405388;19;956;-65
2022/12/24 12:13:12;;;;;;;;;;;;;;;12.78;62.03;100690.88;7405153;19;1849;-65
2022/12/24 12:15:42;;;;;;;;;;;;;;;12.69;62.19;100698.47;7405281;19;972;-66
2022/12/24 12:18:13;;;;;;;;;;;;;;;12.69;62.19;100703.78;7404744;19;802;-66
2022/12/24 12:20:44;;;;;;;;;;;;;;;12.77;61.97;100710.38;7405023;19;1006;-66
2022/12/24 12:23:18;;;;;;;;;;;;;;;12.76;62.24;100720.16;7404560;19;1024;-65
2022/12/24 12:25:49;;;;;;;;;;;;;;;12.70;62.40;100710.78;7404892;19;974;-65
2022/12/24 12:28:22;;;;;;;;;;;;;;;12.62;62.58;100702.44;7404858;19;940;-65
2022/12/24 12:31:01;;;;;;;;;;;;;;;12.65;62.69;100714.66;7404617;19;907;-65
2022/12/24 12:33:32;;;;;;;;;;;;;;;12.73;62.48;100712.38;7404209;19;1865;-66
2022/12/24 12:36:03;;;;;;;;;;;;;;;12.82;62.01;100718.91;7404202;19;960;-65
2022/12/24 12:38:34;;;;;;;;;;;;;;;12.75;62.41;100718.44;7404160;19;936;-66
2022/12/24 12:41:05;;;;;;;;;;;;;;;12.70;62.22;100726.69;7404424;19;911;-66
2022/12/24 12:43:48;;;;;;;;;;;;;;;12.65;62.42;100726.13;7404203;19;905;-66
2022/12/24 12:46:22;;;;;;;;;;;;;;;12.76;62.29;100714.00;7403624;19;1071;-65
2022/12/24 12:48:56;;;;;;;;;;;;;;;12.77;62.10;100710.38;7403835;19;1020;-66
2022/12/24 12:51:27;;;;;;;;;;;;;;;12.72;62.04;100708.88;7403598;19;1083;-66
2022/12/24 12:54:10;;;;;;;;;;;;;;;12.70;62.42;100721.38;7403236;19;1865;-66
2022/12/24 12:56:39;;;;;;;;;;;;;;;12.61;62.81;100726.41;7403806;19;1001;-66
2022/12/24 12:59:11;;;;;;;;;;;;;;;12.66;62.42;100733.13;7403400;19;988;-65
2022/12/24 13:01:43;;;;;;;;;;;;;;;12.73;62.15;100721.22;7401756;19;1445;-66
2022/12/24 13:04:26;;;;;;;;;;;;;;;12.72;62.20;100732.75;7402436;19;1004;-65
2022/12/24 13:07:05;;;;;;;;;;;;;;;12.64;62.58;100720.91;7401108;19;1496;-65
2022/12/24 13:09:51;;;;;;;;;;;;;;;12.55;62.79;100709.06;7402944;19;985;-66
2022/12/24 13:12:34;;;;;;;;;;;;;;;12.68;62.58;100707.38;7402909;19;1051;-66
2022/12/24 13:15:16;;;;;;;;;;;;;;;12.69;62.36;100708.19;7401133;19;1855;-65
2022/12/24 13:17:59;;;;;;;;;;;;;;;12.66;62.39;100697.81;7403153;19;993;-65